This is the latest recevied weather packets stored in our database for station/object KI5NYZ. If no packets are shown the sender has not sent any weather packets the latest 10 day(s).
| Time | Temp. | Humidity | Pressure | Rain* | Wind** | Luminosity | Snow |
|---|---|---|---|---|---|---|---|
| 1778109920 | 24.44° C | 28% | 1012.3 hPa | 0 mm | - | 384 W/m² | - |
| 1778104521 | 23.89° C | 29% | 1012.8 hPa | 0 mm | - | 707 W/m² | - |
| 1778098523 | 21.67° C | 36% | 1014.1 hPa | 0 mm | - | 990 W/m² | - |
| 1778094921 | 19.44° C | 41% | 1014.6 hPa | 0 mm | - | 1067 W/m² | - |
| 1778093121 | 17.78° C | 45% | 1014.8 hPa | 0 mm | - | 1078 W/m² | - |
| 1778091921 | 16.67° C | 47% | 1014.9 hPa | 0 mm | - | 1073 W/m² | - |
| 1778084140 | 12.22° C | 63% | 1015.7 hPa | 1.27 mm | - | 467 W/m² | - |
| 1778077519 | 9.44° C | 71% | 1015.4 hPa | 0 mm | - | 169 W/m² | - |
| 1778074520 | 8.33° C | 77% | 1014.8 hPa | 0 mm | - | 97 W/m² | - |
| 1778072720 | 7.78° C | 79% | 1013.9 hPa | 0 mm | - | 67 W/m² | - |
| 1778066118 | 8.89° C | 75% | 1013 hPa | 0 mm | - | 0 W/m² | - |
| 1778061920 | 11.67° C | 71% | 1012.1 hPa | 0 mm | - | 0 W/m² | - |
| 1778054719 | 12.78° C | 66% | 1010.5 hPa | 0 mm | - | 0 W/m² | - |
| 1778054121 | 13.33° C | 65% | 1010.5 hPa | 0 mm | - | 0 W/m² | - |
| 1778049920 | 16.11° C | 54% | 1010.6 hPa | 0 mm | - | 0 W/m² | - |
| 1778048120 | 17.22° C | 51% | 1010.4 hPa | 0 mm | - | 0 W/m² | - |
| 1778046921 | 18.33° C | 45% | 1009.9 hPa | 0 mm | - | 0 W/m² | - |
| 1778038519 | 21.11° C | 36% | 1008.8 hPa | 0 mm | - | 0 W/m² | - |
| 1778028324 | 25° C | 26% | 1007.6 hPa | 0 mm | - | 37 W/m² | - |
| 1778027120 | 25.56° C | 25% | 1007.7 hPa | 0 mm | - | 53 W/m² | - |
| 1778021122 | 26.11° C | 23% | 1007.7 hPa | 0.51 mm | - | 177 W/m² | - |
| 1778018719 | 26.11° C | 23% | 1007.9 hPa | 0 mm | - | 202 W/m² | - |
| 1778017540 | 26.11° C | 25% | 1008.1 hPa | 0 mm | - | 221 W/m² | - |
| 1778016920 | 26.11° C | 24% | 1008.3 hPa | 0 mm | - | 232 W/m² | - |
| 1778012725 | 27.22° C | 23% | 1008.7 hPa | 0 mm | - | 295 W/m² | - |
* Rain latest hour (hover to see other rain measurements)
** Current wind speed in m/s (hover to see current wind gust speed)